createdAt,value
2019-06-10T00:00:42.033Z,9.60
2019-06-10T00:03:11.719Z,9.67
2019-06-10T00:05:41.438Z,9.97
2019-06-10T00:08:11.733Z,9.93
2019-06-10T00:10:42.105Z,9.63
2019-06-10T00:13:12.088Z,9.37
2019-06-10T00:15:41.480Z,10.50
2019-06-10T00:18:32.825Z,10.23
2019-06-10T00:20:41.226Z,10.30
2019-06-10T00:23:12.210Z,9.90
2019-06-10T00:25:41.485Z,12.00
2019-06-10T00:28:12.118Z,9.10
2019-06-10T00:30:41.392Z,8.67
2019-06-10T00:33:12.623Z,9.93
2019-06-10T00:35:41.365Z,11.03
2019-06-10T00:38:13.824Z,11.30
2019-06-10T00:40:41.653Z,11.60
2019-06-10T00:43:13.190Z,10.33
2019-06-10T00:45:41.249Z,10.87
2019-06-10T00:48:21.647Z,10.53
2019-06-10T00:50:41.519Z,10.10
2019-06-10T00:53:14.091Z,9.20
2019-06-10T00:55:41.736Z,9.23
2019-06-10T00:58:13.692Z,9.23
2019-06-10T01:00:41.792Z,8.90
2019-06-10T01:03:13.507Z,9.23
2019-06-10T01:05:42.280Z,9.97
2019-06-10T01:08:13.852Z,9.80
2019-06-10T01:10:43.873Z,10.43
2019-06-10T01:13:14.039Z,10.50
2019-06-10T01:15:42.818Z,11.47
2019-06-10T01:18:30.261Z,9.97
2019-06-10T01:20:41.825Z,10.07
2019-06-10T01:23:13.805Z,9.17
2019-06-10T01:25:42.203Z,9.00
2019-06-10T01:28:14.595Z,8.43
2019-06-10T01:30:41.985Z,9.10
2019-06-10T01:33:12.569Z,8.43
2019-06-10T01:35:41.681Z,7.83
2019-06-10T01:38:12.828Z,7.63
2019-06-10T01:40:42.331Z,8.30
2019-06-10T01:43:14.075Z,8.47
2019-06-10T01:45:42.273Z,9.07
2019-06-10T01:48:12.140Z,8.40
2019-06-10T01:50:41.613Z,8.03
2019-06-10T01:53:13.777Z,7.83
2019-06-10T01:55:41.805Z,8.10
2019-06-10T01:58:14.430Z,7.97
2019-06-10T02:01:01.305Z,8.00
2019-06-10T02:03:31.347Z,7.70
2019-06-10T02:06:01.453Z,8.50
2019-06-10T02:08:31.656Z,10.23
2019-06-10T02:11:01.240Z,9.63
2019-06-10T02:13:33.022Z,8.97
2019-06-10T02:16:05.526Z,9.20
2019-06-10T02:18:34.186Z,9.27
2019-06-10T02:21:02.827Z,8.40
2019-06-10T02:23:31.824Z,8.43
2019-06-10T02:26:01.388Z,8.63
2019-06-10T02:28:31.751Z,28.67
2019-06-10T02:31:03.472Z,9.00
2019-06-10T02:33:36.178Z,10.27
2019-06-10T02:36:04.261Z,8.70
2019-06-10T02:38:38.657Z,8.33
2019-06-10T02:41:04.338Z,8.03
2019-06-10T02:43:37.391Z,8.13
2019-06-10T02:46:05.024Z,10.73
2019-06-10T02:48:35.380Z,9.17
2019-06-10T02:51:06.340Z,10.10
2019-06-10T02:53:37.010Z,9.83
2019-06-10T02:56:07.207Z,9.23
2019-06-10T02:58:38.965Z,10.03
2019-06-10T03:01:06.702Z,9.73
2019-06-10T03:03:43.715Z,8.97
2019-06-10T03:06:08.510Z,9.90
2019-06-10T03:08:36.895Z,11.00
2019-06-10T03:11:06.018Z,11.70
2019-06-10T03:13:34.985Z,12.03
2019-06-10T03:16:13.013Z,11.20
2019-06-10T03:18:43.422Z,11.17
2019-06-10T03:21:12.439Z,11.30
2019-06-10T03:23:42.662Z,11.03
2019-06-10T03:26:12.340Z,12.27
2019-06-10T03:28:42.724Z,11.00
2019-06-10T03:31:15.128Z,12.43
2019-06-10T03:33:47.289Z,10.43
2019-06-10T03:36:12.613Z,9.87
2019-06-10T03:38:43.320Z,10.53
2019-06-10T03:41:12.490Z,10.10
2019-06-10T03:43:42.966Z,10.17
2019-06-10T03:46:13.655Z,9.70
2019-06-10T03:48:43.270Z,9.83
2019-06-10T03:51:12.750Z,9.73
2019-06-10T03:53:42.553Z,10.27
2019-06-10T03:56:12.848Z,11.30
2019-06-10T03:58:43.020Z,12.03
2019-06-10T04:01:12.435Z,13.03
2019-06-10T04:03:42.726Z,12.43
2019-06-10T04:06:12.889Z,13.57
2019-06-10T04:08:43.320Z,15.03
2019-06-10T04:11:12.397Z,13.23
2019-06-10T04:13:43.187Z,15.03
2019-06-10T04:16:13.026Z,14.63
2019-06-10T04:18:43.025Z,13.43
2019-06-10T04:21:12.886Z,13.00
2019-06-10T04:23:42.536Z,12.20
2019-06-10T04:26:12.697Z,10.97
2019-06-10T04:28:42.924Z,11.73
2019-06-10T04:31:13.062Z,10.87
2019-06-10T04:33:42.431Z,10.47
2019-06-10T04:36:13.213Z,10.73
2019-06-10T04:38:43.136Z,11.17
2019-06-10T04:41:12.695Z,10.60
2019-06-10T04:43:43.178Z,10.80
2019-06-10T04:46:12.682Z,10.90
2019-06-10T04:48:42.607Z,12.13
2019-06-10T04:51:12.925Z,13.43
2019-06-10T04:53:43.554Z,12.80
2019-06-10T04:56:12.562Z,16.53
2019-06-10T04:58:43.221Z,14.90
2019-06-10T05:01:12.272Z,16.37
2019-06-10T05:03:43.312Z,15.07
2019-06-10T05:06:12.391Z,15.70
2019-06-10T05:08:42.619Z,14.70
2019-06-10T05:11:12.760Z,15.50
2019-06-10T05:13:42.872Z,16.03
2019-06-10T05:16:12.515Z,17.87
2019-06-10T05:18:42.368Z,15.67
2019-06-10T05:21:13.033Z,15.83
2019-06-10T05:23:42.951Z,18.67
2019-06-10T05:26:13.320Z,15.63
2019-06-10T05:28:43.277Z,14.27
2019-06-10T05:31:12.915Z,11.20
2019-06-10T05:33:42.562Z,12.77
2019-06-10T05:36:13.210Z,11.10
2019-06-10T05:38:43.571Z,9.37
2019-06-10T05:41:13.345Z,6.10
2019-06-10T05:43:42.964Z,6.67
2019-06-10T05:46:13.480Z,5.47
2019-06-10T05:48:43.725Z,5.60
2019-06-10T05:51:12.685Z,8.40
2019-06-10T05:53:42.680Z,6.03
2019-06-10T05:56:12.915Z,8.53
2019-06-10T05:58:43.631Z,6.87
2019-06-10T06:01:13.206Z,6.00
2019-06-10T06:03:44.012Z,5.50
2019-06-10T06:06:12.777Z,7.47
2019-06-10T06:08:42.856Z,5.40
2019-06-10T06:11:12.638Z,6.47
2019-06-10T06:13:43.165Z,5.73
2019-06-10T06:16:12.778Z,7.37
2019-06-10T06:18:42.422Z,5.00
2019-06-10T06:21:25.487Z,3.90
2019-06-10T06:23:43.670Z,5.40
2019-06-10T06:26:16.559Z,4.70
2019-06-10T06:28:43.446Z,5.03
2019-06-10T06:31:12.654Z,5.20
2019-06-10T06:33:43.340Z,3.37
2019-06-10T06:36:12.707Z,4.50
2019-06-10T06:38:43.725Z,4.13
2019-06-10T06:41:13.662Z,3.27
2019-06-10T06:43:45.248Z,5.17
2019-06-10T06:46:12.972Z,4.27
2019-06-10T06:48:43.934Z,3.43
2019-06-10T06:51:12.978Z,3.23
2019-06-10T06:53:50.650Z,3.93
2019-06-10T06:56:12.762Z,5.03
2019-06-10T06:58:43.309Z,6.23
2019-06-10T07:01:14.661Z,4.23
2019-06-10T07:03:44.961Z,4.33
2019-06-10T07:06:17.027Z,4.10
2019-06-10T07:09:00.230Z,3.60
2019-06-10T07:11:18.930Z,3.77
2019-06-10T07:13:47.624Z,4.00
2019-06-10T07:16:16.360Z,3.53
2019-06-10T07:18:50.022Z,4.33
2019-06-10T07:21:15.358Z,4.43
2019-06-10T07:23:46.821Z,3.70
2019-06-10T07:26:14.450Z,5.57
2019-06-10T07:28:47.105Z,4.77
2019-06-10T07:31:23.216Z,4.90
2019-06-10T07:33:46.925Z,5.00
2019-06-10T07:36:14.194Z,3.53
2019-06-10T07:38:48.799Z,3.70
2019-06-10T07:41:14.826Z,3.50
2019-06-10T07:43:49.491Z,3.97
2019-06-10T07:46:13.869Z,5.73
2019-06-10T07:48:48.056Z,3.70
2019-06-10T07:51:13.338Z,3.60
2019-06-10T07:53:46.150Z,4.97
2019-06-10T07:56:13.032Z,2.87
2019-06-10T07:58:46.983Z,3.20
2019-06-10T08:01:13.159Z,3.20
2019-06-10T08:03:46.006Z,2.80
2019-06-10T08:06:12.871Z,3.67
2019-06-10T08:08:44.773Z,3.27
2019-06-10T08:11:13.669Z,2.63
2019-06-10T08:13:45.907Z,2.53
2019-06-10T08:16:13.327Z,2.70
2019-06-10T08:19:13.821Z,2.80
2019-06-10T08:21:12.499Z,2.50
2019-06-10T08:23:44.800Z,2.80
2019-06-10T08:26:12.695Z,2.50
2019-06-10T08:28:44.541Z,2.37
2019-06-10T08:31:12.521Z,2.30
2019-06-10T08:33:44.389Z,2.67
2019-06-10T08:36:13.510Z,2.40
2019-06-10T08:38:44.900Z,2.10
2019-06-10T08:41:12.489Z,2.30
2019-06-10T08:43:44.700Z,2.60
2019-06-10T08:46:13.158Z,2.33
2019-06-10T08:48:45.779Z,3.13
2019-06-10T08:51:12.674Z,3.00
2019-06-10T08:53:44.099Z,3.13
2019-06-10T08:56:13.022Z,2.50
2019-06-10T08:58:45.675Z,3.57
2019-06-10T09:01:13.444Z,2.87
2019-06-10T09:03:46.350Z,2.60
2019-06-10T09:06:13.442Z,2.70
2019-06-10T09:08:45.778Z,2.90
2019-06-10T09:11:13.076Z,3.13
2019-06-10T09:13:45.475Z,3.30
2019-06-10T09:16:18.581Z,2.90
2019-06-10T09:18:47.328Z,3.50
2019-06-10T09:21:13.154Z,3.30
2019-06-10T09:23:47.274Z,4.10
2019-06-10T09:26:14.057Z,3.00
2019-06-10T09:28:47.155Z,3.43
2019-06-10T09:31:13.991Z,3.77
2019-06-10T09:33:49.949Z,3.30
2019-06-10T09:36:13.517Z,3.60
2019-06-10T09:38:45.763Z,3.07
2019-06-10T09:41:14.126Z,2.50
2019-06-10T09:43:49.989Z,2.87
2019-06-10T09:46:15.035Z,2.90
2019-06-10T09:48:48.549Z,2.87
2019-06-10T09:51:14.755Z,3.00
2019-06-10T09:53:54.054Z,3.27
2019-06-10T09:56:13.753Z,3.80
2019-06-10T09:58:46.055Z,4.77
2019-06-10T10:01:13.503Z,5.60
2019-06-10T10:03:46.925Z,4.10
2019-06-10T10:06:15.609Z,3.90
2019-06-10T10:08:46.047Z,4.23
2019-06-10T10:11:13.969Z,4.10
2019-06-10T10:13:46.053Z,3.37
2019-06-10T10:16:13.310Z,3.50
2019-06-10T10:18:46.948Z,4.13
2019-06-10T10:21:13.057Z,4.10
2019-06-10T10:23:56.544Z,4.27
2019-06-10T10:26:14.231Z,4.00
2019-06-10T10:28:44.632Z,4.57
2019-06-10T10:31:13.381Z,3.10
2019-06-10T10:33:42.630Z,3.60
2019-06-10T10:36:14.081Z,3.40
2019-06-10T10:38:42.608Z,3.87
2019-06-10T10:41:13.252Z,3.50
2019-06-10T10:43:44.825Z,3.73
2019-06-10T10:46:13.962Z,4.30
2019-06-10T10:48:43.092Z,2.93
2019-06-10T10:51:12.984Z,3.70
2019-06-10T10:53:48.261Z,3.57
2019-06-10T10:56:13.064Z,3.40
2019-06-10T10:58:43.830Z,4.10
2019-06-10T11:01:15.007Z,4.67
2019-06-10T11:03:45.450Z,4.50
2019-06-10T11:06:13.910Z,4.07
2019-06-10T11:08:44.625Z,4.87
2019-06-10T11:11:14.116Z,4.77
2019-06-10T11:13:45.517Z,5.23
2019-06-10T11:16:15.427Z,4.43
2019-06-10T11:18:45.217Z,4.20
2019-06-10T11:21:14.023Z,3.97
2019-06-10T11:23:43.631Z,4.57
2019-06-10T11:26:13.211Z,4.30
2019-06-10T11:28:43.042Z,5.30
2019-06-10T11:31:13.793Z,4.00
2019-06-10T11:33:43.581Z,4.97
2019-06-10T11:36:13.503Z,4.60
2019-06-10T11:38:42.471Z,4.40
2019-06-10T11:41:13.432Z,4.80
2019-06-10T11:43:42.952Z,6.43
2019-06-10T11:46:13.099Z,5.97
2019-06-10T11:48:43.524Z,6.03
2019-06-10T11:51:13.405Z,5.03
2019-06-10T11:53:44.069Z,5.33
2019-06-10T11:56:13.233Z,5.83
2019-06-10T11:58:42.821Z,5.37
2019-06-10T12:01:13.124Z,4.20
2019-06-10T12:03:43.190Z,4.57
2019-06-10T12:06:13.576Z,4.20
2019-06-10T12:08:43.452Z,4.73
2019-06-10T12:11:12.921Z,4.57
2019-06-10T12:13:42.921Z,4.73
2019-06-10T12:17:05.817Z,4.67
2019-06-10T12:18:42.798Z,4.80
2019-06-10T12:21:13.234Z,4.83
2019-06-10T12:23:43.472Z,5.30
2019-06-10T12:26:12.394Z,4.90
2019-06-10T12:28:43.208Z,5.13
2019-06-10T12:31:13.538Z,5.20
2019-06-10T12:33:42.244Z,5.40
2019-06-10T12:36:12.803Z,5.07
2019-06-10T12:38:43.422Z,4.73
2019-06-10T12:41:13.914Z,5.13
2019-06-10T12:43:43.349Z,4.57
2019-06-10T12:46:12.952Z,4.53
2019-06-10T12:48:42.563Z,6.33
2019-06-10T12:51:13.617Z,4.00
2019-06-10T12:53:43.234Z,4.30
2019-06-10T12:56:14.925Z,4.93
2019-06-10T12:58:43.395Z,4.23
2019-06-10T13:01:12.637Z,4.23
2019-06-10T13:03:43.751Z,5.63
2019-06-10T13:06:13.075Z,6.23
2019-06-10T13:08:43.685Z,4.83
2019-06-10T13:11:14.965Z,6.40
2019-06-10T13:13:44.055Z,5.70
2019-06-10T13:16:14.277Z,5.60
2019-06-10T13:18:43.284Z,5.87
2019-06-10T13:21:16.855Z,5.13
2019-06-10T13:23:43.135Z,5.27
2019-06-10T13:26:15.971Z,4.90
2019-06-10T13:28:44.320Z,5.60
2019-06-10T13:31:14.010Z,6.07
2019-06-10T13:33:43.241Z,5.73
2019-06-10T13:36:12.714Z,6.83
2019-06-10T13:38:42.870Z,10.10
2019-06-10T13:41:11.771Z,8.20
2019-06-10T13:43:43.210Z,7.57
2019-06-10T13:46:11.123Z,6.63
2019-06-10T13:48:39.924Z,6.57
2019-06-10T13:51:11.884Z,6.60
2019-06-10T13:53:39.025Z,6.63
2019-06-10T13:56:31.991Z,6.27
2019-06-10T13:58:38.025Z,5.73
2019-06-10T14:01:10.061Z,24.90
2019-06-10T14:03:37.123Z,7.43
2019-06-10T14:06:21.185Z,7.30
2019-06-10T14:08:36.705Z,7.67
2019-06-10T14:11:07.591Z,6.67
2019-06-10T14:13:35.694Z,6.70
2019-06-10T14:16:05.595Z,5.57
2019-06-10T14:18:35.171Z,5.27
2019-06-10T14:21:07.938Z,5.10
2019-06-10T14:23:34.957Z,5.83
2019-06-10T14:26:05.928Z,6.47
2019-06-10T14:28:40.636Z,6.97
2019-06-10T14:31:24.233Z,6.00
2019-06-10T14:33:34.833Z,6.00
2019-06-10T14:36:05.451Z,6.63
2019-06-10T14:38:34.036Z,6.33
2019-06-10T14:41:04.768Z,7.13
2019-06-10T14:43:33.454Z,8.07
2019-06-10T14:46:02.032Z,7.07
2019-06-10T14:48:33.516Z,7.90
2019-06-10T14:51:03.319Z,7.80
2019-06-10T14:53:33.744Z,8.03
2019-06-10T14:56:03.858Z,6.93
2019-06-10T14:58:32.479Z,6.97
2019-06-10T15:01:04.302Z,6.43
2019-06-10T15:03:32.772Z,6.63
2019-06-10T15:06:03.166Z,7.10
2019-06-10T15:08:32.345Z,6.60
2019-06-10T15:11:01.168Z,5.67
2019-06-10T15:13:32.533Z,6.10
2019-06-10T15:16:04.292Z,5.87
2019-06-10T15:18:33.020Z,5.77
2019-06-10T15:21:02.780Z,5.10
2019-06-10T15:23:32.428Z,8.10
2019-06-10T15:26:02.817Z,9.87
2019-06-10T15:28:31.779Z,5.97
2019-06-10T15:31:02.795Z,6.50
2019-06-10T15:33:32.679Z,6.33
2019-06-10T15:36:02.325Z,6.83
2019-06-10T15:38:32.770Z,7.40
2019-06-10T15:41:01.715Z,7.70
2019-06-10T15:43:32.877Z,6.40
2019-06-10T15:46:03.167Z,6.63
2019-06-10T15:48:31.300Z,6.57
2019-06-10T15:50:59.951Z,6.57
2019-06-10T15:53:28.591Z,6.50
2019-06-10T15:56:22.438Z,7.00
2019-06-10T15:58:27.606Z,6.57
2019-06-10T16:00:56.241Z,15.07
2019-06-10T16:03:25.767Z,7.70
2019-06-10T16:05:54.536Z,7.00
2019-06-10T16:08:23.121Z,7.17
2019-06-10T16:10:53.150Z,5.60
2019-06-10T16:13:25.551Z,6.43
2019-06-10T16:15:53.421Z,6.40
2019-06-10T16:18:26.038Z,7.20
2019-06-10T16:20:53.153Z,7.40
2019-06-10T16:23:24.504Z,6.30
2019-06-10T16:25:53.482Z,7.13
2019-06-10T16:28:23.391Z,7.10
2019-06-10T16:30:53.601Z,6.40
2019-06-10T16:33:27.277Z,8.60
2019-06-10T16:35:53.120Z,12.37
2019-06-10T16:38:24.156Z,12.97
2019-06-10T16:40:53.765Z,11.47
2019-06-10T16:43:24.429Z,11.80
2019-06-10T16:45:53.058Z,12.03
2019-06-10T16:48:22.202Z,9.20
2019-06-10T16:50:54.324Z,12.20
2019-06-10T16:53:26.729Z,9.63
2019-06-10T16:55:53.818Z,13.80
2019-06-10T16:58:25.359Z,8.10
2019-06-10T17:00:52.913Z,7.83
2019-06-10T17:03:25.077Z,9.00
2019-06-10T17:05:53.330Z,13.30
2019-06-10T17:08:24.933Z,9.77
2019-06-10T17:10:52.797Z,9.00
2019-06-10T17:13:25.250Z,10.57
2019-06-10T17:15:53.940Z,8.97
2019-06-10T17:18:23.583Z,9.13
2019-06-10T17:20:53.646Z,8.03
2019-06-10T17:23:26.674Z,8.87
2019-06-10T17:25:56.163Z,7.67
2019-06-10T17:28:29.766Z,10.80
2019-06-10T17:30:57.286Z,11.63
2019-06-10T17:33:27.799Z,9.20
2019-06-10T17:35:57.078Z,8.80
2019-06-10T17:38:26.883Z,9.87
2019-06-10T17:40:55.629Z,9.77
2019-06-10T17:43:25.211Z,33.83
2019-06-10T17:45:53.984Z,9.63
2019-06-10T17:48:33.776Z,12.21
2019-06-10T17:51:02.645Z,13.43
2019-06-10T17:53:34.711Z,8.83
2019-06-10T17:56:03.324Z,12.77
2019-06-10T17:58:48.770Z,11.30
2019-06-10T18:01:02.649Z,13.20
2019-06-10T18:03:31.450Z,11.70
2019-06-10T18:06:02.563Z,11.63
2019-06-10T18:08:32.337Z,10.03
2019-06-10T18:11:03.075Z,10.63
2019-06-10T18:13:34.697Z,12.37
2019-06-10T18:16:03.373Z,9.37
2019-06-10T18:18:35.648Z,10.43
2019-06-10T18:21:03.372Z,36.00
2019-06-10T18:23:35.061Z,14.97
2019-06-10T18:26:03.871Z,13.23
2019-06-10T18:28:45.528Z,14.07
2019-06-10T18:31:02.898Z,14.53
2019-06-10T18:33:34.511Z,14.83
2019-06-10T18:36:02.038Z,18.00
2019-06-10T18:38:33.945Z,13.77
2019-06-10T18:41:03.142Z,14.33
2019-06-10T18:43:32.561Z,12.93
2019-06-10T18:46:03.515Z,16.67
2019-06-10T18:48:36.012Z,11.63
2019-06-10T18:51:02.699Z,11.70
2019-06-10T18:53:34.487Z,12.27
2019-06-10T18:56:01.758Z,13.90
2019-06-10T18:58:33.003Z,14.20
2019-06-10T19:01:07.204Z,12.13
2019-06-10T19:03:34.616Z,14.63
2019-06-10T19:06:01.806Z,13.20
2019-06-10T19:08:33.704Z,13.67
2019-06-10T19:11:02.464Z,15.37
2019-06-10T19:13:34.382Z,13.30
2019-06-10T19:16:03.298Z,12.37
2019-06-10T19:18:32.035Z,13.07
2019-06-10T19:21:04.306Z,14.10
2019-06-10T19:23:34.736Z,13.90
2019-06-10T19:26:02.956Z,14.07
2019-06-10T19:28:33.861Z,12.53
2019-06-10T19:31:02.454Z,14.07
2019-06-10T19:33:34.110Z,11.97
2019-06-10T19:36:02.259Z,12.67
2019-06-10T19:38:32.457Z,11.43
2019-06-10T19:41:02.729Z,14.43
2019-06-10T19:43:34.489Z,13.57
2019-06-10T19:46:04.709Z,12.10
2019-06-10T19:48:37.718Z,11.63
2019-06-10T19:51:03.713Z,14.63
2019-06-10T19:53:33.082Z,12.40
2019-06-10T19:56:02.812Z,17.27
2019-06-10T19:58:32.302Z,11.60
2019-06-10T20:01:01.164Z,15.03
2019-06-10T20:03:29.797Z,11.27
2019-06-10T20:05:58.430Z,13.27
2019-06-10T20:08:27.119Z,14.73
2019-06-10T20:11:03.456Z,13.77
2019-06-10T20:13:32.560Z,13.93
2019-06-10T20:16:03.024Z,18.50
2019-06-10T20:18:33.244Z,12.53
2019-06-10T20:21:02.738Z,12.93
2019-06-10T20:23:33.299Z,13.87
2019-06-10T20:26:02.252Z,13.60
2019-06-10T20:28:32.166Z,13.33
2019-06-10T20:31:00.965Z,10.53
2019-06-10T20:33:37.083Z,12.17
2019-06-10T20:36:07.416Z,11.83
2019-06-10T20:38:35.502Z,16.53
2019-06-10T20:41:05.281Z,11.60
2019-06-10T20:43:33.951Z,11.60
2019-06-10T20:46:05.785Z,11.80
2019-06-10T20:48:33.482Z,10.40
2019-06-10T20:51:02.990Z,10.73
2019-06-10T20:53:33.716Z,7.97
2019-06-10T20:56:03.889Z,5.93
2019-06-10T20:58:33.199Z,7.30
2019-06-10T21:01:04.583Z,6.47
2019-06-10T21:03:32.561Z,6.17
2019-06-10T21:06:03.648Z,5.00
2019-06-10T21:08:33.985Z,6.77
2019-06-10T21:11:03.077Z,7.30
2019-06-10T21:13:32.935Z,7.70
2019-06-10T21:16:03.824Z,6.87
2019-06-10T21:18:33.137Z,8.17
2019-06-10T21:21:01.973Z,7.50
2019-06-10T21:23:30.645Z,7.23
2019-06-10T21:25:59.265Z,7.67
2019-06-10T21:28:27.914Z,7.03
2019-06-10T21:30:58.876Z,8.43
2019-06-10T21:33:26.909Z,9.20
2019-06-10T21:35:55.565Z,8.47
2019-06-10T21:38:24.279Z,8.80
2019-06-10T21:40:54.217Z,9.30
2019-06-10T21:43:22.975Z,10.10
2019-06-10T21:45:57.414Z,8.87
2019-06-10T21:48:23.042Z,8.07
2019-06-10T21:50:55.613Z,8.97
2019-06-10T21:53:22.487Z,10.27
2019-06-10T21:55:53.543Z,10.13
2019-06-10T21:58:22.536Z,9.10
2019-06-10T22:01:03.440Z,7.80
2019-06-10T22:03:23.467Z,8.37
2019-06-10T22:05:53.680Z,9.43
2019-06-10T22:08:22.414Z,8.80
2019-06-10T22:10:54.634Z,8.23
2019-06-10T22:13:22.382Z,9.10
2019-06-10T22:15:54.790Z,9.33
2019-06-10T22:18:22.869Z,9.90
2019-06-10T22:20:56.066Z,10.83
2019-06-10T22:23:23.268Z,9.63
2019-06-10T22:25:55.666Z,8.80
2019-06-10T22:28:22.598Z,9.10
2019-06-10T22:30:55.646Z,9.47
2019-06-10T22:33:22.595Z,8.60
2019-06-10T22:35:55.389Z,8.20
2019-06-10T22:38:22.285Z,8.50
2019-06-10T22:40:53.645Z,8.73
2019-06-10T22:43:23.506Z,9.40
2019-06-10T22:45:54.162Z,8.83
2019-06-10T22:48:22.647Z,9.80
2019-06-10T22:50:51.355Z,8.23
2019-06-10T22:53:22.978Z,7.77
2019-06-10T22:55:53.030Z,7.27
2019-06-10T22:58:23.634Z,7.30
2019-06-10T23:00:53.199Z,7.63
2019-06-10T23:03:21.984Z,8.10
2019-06-10T23:05:50.769Z,7.53
2019-06-10T23:08:19.455Z,7.83
2019-06-10T23:10:48.516Z,7.80
2019-06-10T23:13:17.321Z,8.53
2019-06-10T23:15:45.882Z,9.50
2019-06-10T23:18:14.679Z,8.00
2019-06-10T23:20:43.329Z,7.47
2019-06-10T23:23:12.931Z,6.60
2019-06-10T23:25:42.933Z,6.73
2019-06-10T23:28:12.971Z,9.13
2019-06-10T23:30:42.625Z,7.40
2019-06-10T23:33:12.594Z,6.57
2019-06-10T23:35:43.162Z,7.10
2019-06-10T23:38:13.265Z,6.43
2019-06-10T23:40:42.970Z,6.33
2019-06-10T23:43:13.177Z,5.87
2019-06-10T23:45:42.510Z,6.23
2019-06-10T23:48:13.355Z,6.10
2019-06-10T23:50:43.694Z,6.50
2019-06-10T23:53:13.109Z,5.83
2019-06-10T23:55:42.749Z,6.00
2019-06-10T23:58:12.875Z,6.20
